Thunder radar more information blitzortung!


Radar de pluja more information rain snow radar


Visita la nostra xarxa de llocs de meteo:

Template documentation
and downloads

And another site



Wind From: 11-12-2017 11:00 Until: 14:59 warning for: Wind Level: Yellow info button

Pagina Historial Weather Underground text

Diari Resum Novembre 8, 2017 Unitats:  Imperial    Mètric   Tant
« Previous Dia
SegĂźent Dia »
Diari Setmana Mensual Anual Personalitzada
  Maxima: Minima: Media:
Temperatura: 53.4 °F 37.8 °F 47.7 °F
Punt de rosada: 34.7 °F 21.6 °F 30.9 °F
Humitat: 63 % 46 % 52 %
Wind Speed: 5.8 mph 0 mph 1.9 mph
RĂ fegues de vent: 5.8 mph - -
Vent:- - SSE
Pression baro: 30.2 in 30.1 in -
Precipitacions: 0 in    
Historical Graphs
 
 
Dades de taula per Novembre 8, 2017
Temps Temperatura Punt de rosada Pression baro Vent Wind Speed RĂ fegues de vent Humitat Rainfall Rate (Hourly)
00:04 40.3 °F 21.6 °F 30.1 in WSW 2.3 mph 2.3 mph 47 % 0 in
00:05 38.7 °F 22.1 °F 30.1 in West 1 mph 2 mph 51 % 0 in
00:15 38.5 °F 22.5 °F 30.1 in Calm   2 mph 52 % 0 in
00:25 38.1 °F 21.9 °F 30.1 in WSW 1 mph 2 mph 52 % 0 in
00:35 37.9 °F 21.9 °F 30.1 in SW 1 mph 2 mph 52 % 0 in
00:45 38.1 °F 21.9 °F 30.1 in Calm     52 % 0 in
00:55 38.1 °F 21.9 °F 30.1 in SW 2 mph 2 mph 52 % 0 in
01:05 38.1 °F 21.9 °F 30.1 in WSW 1 mph 2 mph 52 % 0 in
01:15 38.1 °F 21.9 °F 30.1 in West 1 mph 2 mph 52 % 0 in
01:35 38.3 °F 22.6 °F 30.1 in Calm   2 mph 53 % 0 in
01:45 38.3 °F 22.3 °F 30.1 in WSW 1 mph 2 mph 52 % 0 in
01:55 38.7 °F 22.5 °F 30.2 in West 1 mph 2 mph 52 % 0 in
02:05 39.2 °F 23.5 °F 30.2 in NW 2 mph 3 mph 53 % 0 in
02:15 38.1 °F 22.5 °F 30.2 in NNE 3 mph 4 mph 53 % 0 in
02:25 37.8 °F 21.7 °F 30.2 in NNE 1 mph 4 mph 52 % 0 in
02:35 39.4 °F 23.7 °F 30.2 in Calm   2 mph 53 % 0 in
02:45 40.1 °F 24.3 °F 30.2 in Calm   2 mph 53 % 0 in
02:55 41 °F 25.2 °F 30.2 in West 1 mph 3 mph 53 % 0 in
03:05 41.5 °F 25.2 °F 30.2 in NW 2 mph 2 mph 52 % 0 in
03:15 42.6 °F 26.2 °F 30.2 in NW 1 mph 3 mph 52 % 0 in
03:25 43.9 °F 27.3 °F 30.2 in WNW 1 mph 2 mph 52 % 0 in
03:35 44.8 °F 28.2 °F 30.2 in NW 2 mph 4 mph 52 % 0 in
03:45 45.9 °F 28.8 °F 30.2 in NNW 2 mph 3 mph 51 % 0 in
03:55 46.9 °F 29.7 °F 30.2 in NNW 1 mph 1 mph 51 % 0 in
04:05 47.7 °F 30.4 °F 30.2 in ENE 1 mph 2 mph 51 % 0 in
04:15 49.1 °F 31.6 °F 30.2 in ESE 1 mph 2 mph 51 % 0 in
04:25 48.2 °F 30.4 °F 30.2 in NE 2 mph 3 mph 50 % 0 in
04:35 49.1 °F 31.3 °F 30.2 in ENE 1 mph 4 mph 50 % 0 in
04:45 49.6 °F 31.3 °F 30.2 in NE 2 mph 2 mph 49 % 0 in
04:55 49.1 °F 30.7 °F 30.2 in NE 1 mph 2 mph 49 % 0 in
11:02 49.3 °F 30.9 °F 30.2 in North 1.6 mph 1.6 mph 49 % 0 in
11:03 49.3 °F 30.9 °F 30.2 in North 2.3 mph 2.3 mph 49 % 0 in
11:04 49.3 °F 30.9 °F 30.2 in WNW 2.3 mph 2.3 mph 49 % 0 in
11:09 48.9 °F 30 °F 30.2 in NNE 3.5 mph 3.5 mph 48 % 0 in
11:14 48.9 °F 30 °F 30.2 in NNE 2.4 mph 2.4 mph 48 % 0 in
11:19 49.3 °F 30.4 °F 30.2 in NNW 2.3 mph   48 % 0 in
11:24 49.3 °F 30.4 °F 30.2 in ENE 2.3 mph 2.3 mph 48 % 0 in
11:29 49.6 °F 30.7 °F 30.2 in ENE 2.6 mph 2.6 mph 48 % 0 in
11:34 50 °F 31.1 °F 30.2 in NNW 2.3 mph 2.3 mph 48 % 0 in
11:39 50.4 °F 31.5 °F 30.2 in NNE 1.4 mph   48 % 0 in
11:44 50.9 °F 31.8 °F 30.2 in ENE 2.3 mph   48 % 0 in
11:49 51.1 °F 31.5 °F 30.2 in WNW 2.3 mph 2.3 mph 47 % 0 in
11:54 51.3 °F 31.6 °F 30.2 in ENE 2.6 mph 2.6 mph 47 % 0 in
11:59 51.1 °F 31.5 °F 30.2 in NNW 2.3 mph 2.3 mph 47 % 0 in
12:04 51.3 °F 31.6 °F 30.2 in NE 3.5 mph 3.5 mph 47 % 0 in
12:09 51.4 °F 31.8 °F 30.2 in NE 2.3 mph 2.3 mph 47 % 0 in
12:14 52.2 °F 32.5 °F 30.2 in NNW 2.3 mph 2.3 mph 47 % 0 in
12:19 52.2 °F 32.5 °F 30.2 in ENE 2.4 mph 2.4 mph 47 % 0 in
12:24 52.5 °F 32.9 °F 30.2 in NNW 3.5 mph 3.5 mph 47 % 0 in
12:29 52.7 °F 33.1 °F 30.2 in ENE 4.6 mph 4.6 mph 47 % 0 in
12:34 52.5 °F 32.9 °F 30.2 in NNE 5.4 mph 5.4 mph 47 % 0 in
12:39 52.2 °F 32 °F 30.2 in ENE 4.6 mph 4.6 mph 46 % 0 in
12:44 52 °F 31.8 °F 30.2 in NNE 3.5 mph 3.5 mph 46 % 0 in
12:49 52.3 °F 32.2 °F 30.2 in ESE 2.4 mph 2.4 mph 46 % 0 in
12:54 52.5 °F 32.4 °F 30.2 in ENE 4.6 mph 4.6 mph 46 % 0 in
12:59 52.7 °F 32.5 °F 30.2 in NNE 2.6 mph 2.6 mph 46 % 0 in
13:04 53.1 °F 32.7 °F 30.2 in NE 2.9 mph 2.9 mph 46 % 0 in
13:09 53.4 °F 33.1 °F 30.2 in NNE 3.8 mph 3.8 mph 46 % 0 in
13:14 53.4 °F 33.1 °F 30.2 in NE 2.3 mph 2.3 mph 46 % 0 in
13:19 53.2 °F 33.1 °F 30.2 in ENE 3.8 mph 3.8 mph 46 % 0 in
13:24 53.1 °F 32.7 °F 30.2 in NE 4.6 mph 4.6 mph 46 % 0 in
13:29 53.2 °F 33.1 °F 30.2 in ENE 4.6 mph 4.6 mph 46 % 0 in
13:34 53.4 °F 33.1 °F 30.2 in NNE 3.5 mph 3.5 mph 46 % 0 in
13:44 53.4 °F 33.1 °F 30.2 in NNE 4.6 mph 4.6 mph 46 % 0 in
13:49 53.4 °F 33.1 °F 30.2 in NNE 2.6 mph   46 % 0 in
13:54 53.2 °F 33.1 °F 30.2 in NNE 2.3 mph   46 % 0 in
13:59 53.4 °F 33.6 °F 30.2 in NNE 2.3 mph 2.3 mph 47 % 0 in
14:04 53.2 °F 33.1 °F 30.2 in NNE 4 mph 4 mph 46 % 0 in
14:09 53.1 °F 33.3 °F 30.2 in NNE 3.5 mph 3.5 mph 47 % 0 in
14:14 53.1 °F 33.3 °F 30.2 in West 2.3 mph 2.3 mph 47 % 0 in
14:19 53.1 °F 33.3 °F 30.2 in NNE 3.5 mph 3.5 mph 47 % 0 in
14:24 53.1 °F 33.3 °F 30.2 in NE 4.6 mph 4.6 mph 47 % 0 in
14:29 53.1 °F 33.3 °F 30.2 in NNE 3.5 mph 3.5 mph 47 % 0 in
14:34 53.1 °F 33.3 °F 30.2 in NW 2.3 mph 2.3 mph 47 % 0 in
14:39 53.1 °F 33.3 °F 30.2 in NE 3.5 mph 3.5 mph 47 % 0 in
14:44 53.1 °F 33.3 °F 30.2 in NE 4.6 mph 4.6 mph 47 % 0 in
14:54 53.1 °F 33.3 °F 30.2 in NNE 1.6 mph 1.6 mph 47 % 0 in
14:59 53.1 °F 33.3 °F 30.2 in ENE 4.6 mph 4.6 mph 47 % 0 in
15:04 52.9 °F 33.3 °F 30.2 in NNE 3.5 mph 3.5 mph 47 % 0 in
15:09 52.9 °F 33.3 °F 30.2 in ENE 3.5 mph 3.5 mph 47 % 0 in
15:14 52.9 °F 33.3 °F 30.2 in NNE 2.4 mph 2.4 mph 47 % 0 in
15:19 52.9 °F 33.3 °F 30.2 in ENE 2.3 mph 2.3 mph 47 % 0 in
15:29 52.7 °F 33.4 °F 30.2 in North 2.3 mph   48 % 0 in
15:34 52.9 °F 33.6 °F 30.2 in WNW 2.3 mph 2.3 mph 48 % 0 in
15:39 52.7 °F 33.4 °F 30.2 in NNW 2.3 mph 2.3 mph 48 % 0 in
15:44 52.7 °F 33.4 °F 30.2 in NE 1.2 mph   48 % 0 in
15:49 52.7 °F 33.4 °F 30.2 in NNE 3.1 mph 3.1 mph 48 % 0 in
15:54 52.7 °F 34.2 °F 30.2 in NE 1.4 mph 1.4 mph 49 % 0 in
15:59 52.7 °F 34.2 °F 30.2 in WNW 1.2 mph   49 % 0 in
16:04 52.9 °F 34.2 °F 30.2 in NNW 1.2 mph   49 % 0 in
16:09 52.9 °F 34.2 °F 30.2 in NNE 2.4 mph 2.4 mph 49 % 0 in
16:14 52.9 °F 34.2 °F 30.2 in NNE 1.2 mph 1.2 mph 49 % 0 in
16:19 52.9 °F 34.2 °F 30.2 in NNE 1.2 mph   49 % 0 in
16:24 52.9 °F 34.7 °F 30.2 in North 1.6 mph 1.6 mph 50 % 0 in
16:29 52.7 °F 34.5 °F 30.2 in ENE 1.2 mph   50 % 0 in
16:34 52.5 °F 34.3 °F 30.2 in East 2.3 mph 2.3 mph 50 % 0 in
16:39 52.3 °F 34.2 °F 30.2 in NW 2.6 mph 2.6 mph 50 % 0 in
16:44 52.3 °F 34.2 °F 30.2 in WNW 3.1 mph 3.1 mph 50 % 0 in
16:49 52.2 °F 34.2 °F 30.2 in North 1.6 mph 1.6 mph 50 % 0 in
16:54 52 °F 34 °F 30.1 in ENE 3.5 mph 3.5 mph 50 % 0 in
16:59 51.8 °F 33.6 °F 30.1 in North 2.4 mph 2.4 mph 50 % 0 in
17:04 51.6 °F 33.6 °F 30.1 in NNE 3.5 mph 3.5 mph 50 % 0 in
17:09 51.6 °F 33.6 °F 30.2 in North 1.4 mph   50 % 0 in
17:14 51.4 °F 33.4 °F 30.2 in NNW 2.3 mph   50 % 0 in
17:19 51.4 °F 33.4 °F 30.2 in WNW 1.6 mph 1.6 mph 50 % 0 in
17:24 51.3 °F 33.6 °F 30.1 in NW 1.2 mph   51 % 0 in
17:29 51.3 °F 33.6 °F 30.1 in West 1.2 mph   51 % 0 in
17:34 51.3 °F 33.6 °F 30.1 in NNE 1.2 mph   51 % 0 in
17:39 51.1 °F 33.6 °F 30.2 in NE 1.2 mph 1.2 mph 51 % 0 in
17:44 51.1 °F 33.6 °F 30.2 in Calm     51 % 0 in
17:49 50.9 °F 33.4 °F 30.2 in Calm     51 % 0 in
17:54 50.7 °F 33.3 °F 30.2 in Calm     51 % 0 in
17:59 50.5 °F 33.1 °F 30.2 in Calm     51 % 0 in
18:04 50.4 °F 32.9 °F 30.2 in Calm     51 % 0 in
18:09 50.4 °F 32.9 °F 30.2 in WNW 1.2 mph 1.2 mph 51 % 0 in
18:14 50 °F 33.1 °F 30.2 in Calm     52 % 0 in
18:15 46.2 °F 30.9 °F 30.2 in NNW 1 mph 2 mph 55 % 0 in
18:19 50 °F 33.1 °F 30.2 in Calm     52 % 0 in
18:24 49.6 °F 32.7 °F 30.2 in Calm     52 % 0 in
18:25 46 °F 30.7 °F 30.2 in ESE 1 mph 1 mph 55 % 0 in
18:29 49.6 °F 32.7 °F 30.2 in WNW 1.4 mph 1.4 mph 52 % 0 in
18:34 49.5 °F 32.5 °F 30.2 in West 1.2 mph 1.2 mph 52 % 0 in
18:35 45.9 °F 30.6 °F 30.2 in SSW 1 mph 1 mph 55 % 0 in
18:39 49.3 °F 32.9 °F 30.2 in SW 1.2 mph   53 % 0 in
18:44 48.9 °F 32.5 °F 30.2 in Calm     53 % 0 in
18:45 45.7 °F 30.4 °F 30.2 in SW 1 mph 4 mph 55 % 0 in
18:49 48.9 °F 32.5 °F 30.2 in NE 2 mph 2 mph 53 % 0 in
18:54 48.7 °F 32.7 °F 30.2 in NW 1.4 mph   54 % 0 in
18:55 45.3 °F 30 °F 30.2 in WSW 2 mph 3 mph 55 % 0 in
18:59 48.7 °F 32.7 °F 30.2 in NW 1.2 mph 1.2 mph 54 % 0 in
19:04 48.7 °F 32.4 °F 30.2 in NW 3.5 mph 3.5 mph 53 % 0 in
19:05 45 °F 29.8 °F 30.2 in Calm   2 mph 55 % 0 in
19:14 48.6 °F 32.7 °F 30.2 in NNE 1.2 mph   54 % 0 in
19:15 44.4 °F 29.1 °F 30.2 in SW 2 mph 2 mph 55 % 0 in
19:19 48.6 °F 32.7 °F 30.2 in NW 1.2 mph   54 % 0 in
19:24 48.6 °F 32.7 °F 30.2 in Calm     54 % 0 in
19:29 48.6 °F 32.7 °F 30.2 in Calm     54 % 0 in
19:34 48.6 °F 32.7 °F 30.2 in NW 1.2 mph 1.2 mph 54 % 0 in
19:35 43.7 °F 28.9 °F 30.2 in WSW 2 mph 2 mph 56 % 0 in
19:39 48.6 °F 32.7 °F 30.2 in WNW 1.2 mph   54 % 0 in
19:44 48.6 °F 32.7 °F 30.2 in WNW 2.2 mph 2.2 mph 54 % 0 in
19:45 43.2 °F 28.6 °F 30.2 in SW 2 mph 2 mph 56 % 0 in
19:49 48.6 °F 32.7 °F 30.2 in NNE 2 mph 2 mph 54 % 0 in
19:54 48.6 °F 32.7 °F 30.2 in Calm     54 % 0 in
19:55 42.8 °F 28.6 °F 30.2 in SW 1 mph 3 mph 57 % 0 in
19:59 48.4 °F 32.5 °F 30.2 in South 1.2 mph   54 % 0 in
20:04 48.2 °F 32.4 °F 30.2 in WSW 1.6 mph   54 % 0 in
20:05 42.4 °F 28.2 °F 30.2 in SW 1 mph 2 mph 57 % 0 in
20:14 47.1 °F 31.8 °F 30.2 in NE 1.6 mph 1.6 mph 55 % 0 in
20:15 42.4 °F 28.2 °F 30.2 in WSW 2 mph 2 mph 57 % 0 in
20:24 47.1 °F 32.2 °F 30.2 in Calm     56 % 0 in
20:25 42.3 °F 28.6 °F 30.2 in Calm   2 mph 58 % 0 in
20:29 47.1 °F 32.2 °F 30.2 in Calm     56 % 0 in
20:34 46.9 °F 32 °F 30.2 in WNW 1.2 mph 1.2 mph 56 % 0 in
20:35 42.1 °F 28.4 °F 30.2 in WSW 1 mph 2 mph 58 % 0 in
20:39 46.8 °F 31.8 °F 30.2 in North 1.2 mph 1.2 mph 56 % 0 in
20:44 46.9 °F 32 °F 30.2 in Calm     56 % 0 in
20:45 42.1 °F 28.8 °F 30.2 in Calm   2 mph 59 % 0 in
20:49 46.9 °F 32 °F 30.2 in West 1.2 mph 1.2 mph 56 % 0 in
20:54 46.8 °F 31.8 °F 30.2 in Calm     56 % 0 in
20:55 41.9 °F 28.6 °F 30.2 in WSW 1 mph 2 mph 59 % 0 in
20:59 46.6 °F 31.6 °F 30.2 in West 0.9 mph   56 % 0 in
21:04 46.4 °F 31.5 °F 30.2 in WNW 1.2 mph   56 % 0 in
21:05 41.7 °F 28.4 °F 30.2 in West 1 mph 2 mph 59 % 0 in
21:09 46.4 °F 31.5 °F 30.2 in Calm     56 % 0 in
21:14 46.6 °F 31.6 °F 30.2 in West 2.3 mph 2.3 mph 56 % 0 in
21:15 41.7 °F 28.8 °F 30.2 in West 1 mph 2 mph 60 % 0 in
21:19 46.4 °F 31.5 °F 30.2 in WSW 2.3 mph 2.3 mph 56 % 0 in
21:24 46 °F 31.3 °F 30.2 in WSW 1.2 mph   56 % 0 in
21:25 41.2 °F 28.2 °F 30.2 in North 2 mph 3 mph 60 % 0 in
21:29 46.2 °F 31.5 °F 30.2 in SE 1.2 mph 1.2 mph 56 % 0 in
21:34 46.6 °F 31.6 °F 30.2 in North 1.2 mph   56 % 0 in
21:35 40.5 °F 28 °F 30.2 in Calm   1 mph 61 % 0 in
21:39 46.8 °F 31.8 °F 30.2 in WSW 2.2 mph   56 % 0 in
21:44 47.1 °F 31.8 °F 30.2 in WSW 2.3 mph 2.3 mph 55 % 0 in
21:45 40.1 °F 27.7 °F 30.2 in Calm   1 mph 61 % 0 in
21:49 47.3 °F 31.8 °F 30.2 in WSW 1.2 mph   55 % 0 in
21:54 47.5 °F 32.2 °F 30.2 in WSW 1.6 mph 1.6 mph 55 % 0 in
21:55 39.9 °F 27.5 °F 30.2 in ESE 2 mph 2 mph 61 % 0 in
21:59 47.5 °F 32.2 °F 30.2 in WSW 2.3 mph 2.3 mph 55 % 0 in
22:04 46.9 °F 31.6 °F 30.2 in West 3.5 mph 3.5 mph 55 % 0 in
22:05 39.9 °F 27.9 °F 30.2 in Calm   2 mph 62 % 0 in
22:09 46.9 °F 31.6 °F 30.2 in WSW 2.3 mph 2.3 mph 55 % 0 in
22:14 47.1 °F 31.8 °F 30.2 in NNW 2.3 mph 2.3 mph 55 % 0 in
22:15 39.7 °F 27.9 °F 30.2 in West 1 mph 2 mph 62 % 0 in
22:19 47.3 °F 31.8 °F 30.2 in West 3.6 mph 3.6 mph 55 % 0 in
22:24 47.5 °F 31.6 °F 30.2 in West 4.6 mph 4.6 mph 54 % 0 in
22:25 39.7 °F 28.2 °F 30.2 in NE 1 mph 2 mph 63 % 0 in
22:29 47.7 °F 31.8 °F 30.2 in West 2.6 mph 2.6 mph 54 % 0 in
22:34 47.8 °F 32 °F 30.2 in East 4.6 mph 4.6 mph 54 % 0 in
22:35 40.1 °F 28.6 °F 30.2 in NE 1 mph 1 mph 63 % 0 in
22:39 48 °F 32.2 °F 30.2 in West 3.5 mph 3.5 mph 54 % 0 in
22:44 48 °F 32.2 °F 30.2 in West 4.7 mph 4.7 mph 54 % 0 in
22:45 40.3 °F 28.2 °F 30.2 in NE 1 mph 2 mph 62 % 0 in
22:49 47.8 °F 32 °F 30.2 in WSW 4.6 mph 4.6 mph 54 % 0 in
22:54 47.7 °F 31.8 °F 30.2 in WSW 3.5 mph 3.5 mph 54 % 0 in
22:55 39.9 °F 27.9 °F 30.2 in NNE 1 mph 2 mph 62 % 0 in
22:59 47.5 °F 31.6 °F 30.2 in SW 3.5 mph 3.5 mph 54 % 0 in
23:04 47.1 °F 31.3 °F 30.2 in WSW 2.3 mph 2.4 mph 54 % 0 in
23:05 39.9 °F 28.2 °F 30.2 in NNE 1 mph 1 mph 63 % 0 in
23:09 46.9 °F 31.1 °F 30.2 in SW 2.3 mph 2.3 mph 54 % 0 in
23:14 46.8 °F 30.9 °F 30.2 in WSW 3.5 mph 3.5 mph 54 % 0 in
23:15 39.7 °F 28.2 °F 30.2 in Calm   1 mph 63 % 0 in
23:19 46.8 °F 30.9 °F 30.2 in West 5.8 mph 5.8 mph 54 % 0 in
23:24 46.6 °F 30.7 °F 30.2 in West 3.5 mph 3.5 mph 54 % 0 in
23:25 39.7 °F 28.2 °F 30.2 in NNE 2 mph 3 mph 63 % 0 in
23:29 46.6 °F 30.7 °F 30.2 in SW 2.3 mph 2.3 mph 54 % 0 in
23:34 46.4 °F 30.6 °F 30.2 in SSW 2.3 mph 2.3 mph 54 % 0 in
23:35 39.6 °F 28 °F 30.2 in NNE 1 mph 3 mph 63 % 0 in
23:39 46 °F 30.7 °F 30.2 in SW 1.2 mph   55 % 0 in
23:44 45.9 °F 30.6 °F 30.2 in SW 1.2 mph   55 % 0 in
23:45 39.4 °F 27.9 °F 30.2 in NE 1 mph 2 mph 63 % 0 in
23:49 45.7 °F 30.4 °F 30.2 in West 3.8 mph 3.8 mph 55 % 0 in
23:54 45.9 °F 30.6 °F 30.2 in West 2.3 mph 2.3 mph 55 % 0 in
23:55 39 °F 27.5 °F 30.2 in Calm   1 mph 63 % 0 in
23:59 46 °F 30.7 °F 30.2 in WNW 3.5 mph 3.5 mph 55 % 0 in
Meteo Sesrovires
Elogis d' Weather Underground - 3.75 mb

Guio original per  Jim McMurry - jmcmurry@mwt.net Adaptat per a la plantilla per  Wim van der Kuil - Leuven-Template.eu

Trobareu la nostra informacio del temps tambe a:

Weather Underground

AWEKAS